createdAt,value
2019-06-26T00:00:56.654Z,22.06
2019-06-26T00:02:00.859Z,22.04
2019-06-26T00:03:04.865Z,22.05
2019-06-26T00:04:09.188Z,22.09
2019-06-26T00:05:12.831Z,22.09
2019-06-26T00:06:17.062Z,22.09
2019-06-26T00:07:20.706Z,22.05
2019-06-26T00:08:24.844Z,22.06
2019-06-26T00:09:28.423Z,22.00
2019-06-26T00:10:32.650Z,22.00
2019-06-26T00:11:36.276Z,21.97
2019-06-26T00:12:40.513Z,21.97
2019-06-26T00:13:44.115Z,21.98
2019-06-26T00:14:48.258Z,22.00
2019-06-26T00:15:51.799Z,22.01
2019-06-26T00:16:56.033Z,22.03
2019-06-26T00:17:59.672Z,21.96
2019-06-26T00:19:03.832Z,21.93
2019-06-26T00:20:08.145Z,21.92
2019-06-26T00:21:12.351Z,21.88
2019-06-26T00:22:16.282Z,21.87
2019-06-26T00:23:20.517Z,21.86
2019-06-26T00:24:24.203Z,21.85
2019-06-26T00:25:28.332Z,21.75
2019-06-26T00:26:31.882Z,21.66
2019-06-26T00:27:36.094Z,21.71
2019-06-26T00:28:39.666Z,21.69
2019-06-26T00:29:43.791Z,21.65
2019-06-26T00:30:47.300Z,21.59
2019-06-26T00:31:51.455Z,21.60
2019-06-26T00:32:55.019Z,21.62
2019-06-26T00:33:59.229Z,21.70
2019-06-26T00:35:02.913Z,21.77
2019-06-26T00:36:07.051Z,21.77
2019-06-26T00:37:10.687Z,21.68
2019-06-26T00:38:15.269Z,21.66
2019-06-26T00:39:18.938Z,21.69
2019-06-26T00:40:23.118Z,21.76
2019-06-26T00:41:26.709Z,21.75
2019-06-26T00:42:31.331Z,21.73
2019-06-26T00:43:42.318Z,21.72
2019-06-26T00:44:41.159Z,21.68
2019-06-26T00:45:44.840Z,21.62
2019-06-26T00:46:48.916Z,21.63
2019-06-26T00:47:52.589Z,21.66
2019-06-26T00:48:57.080Z,21.66
2019-06-26T00:50:00.632Z,21.67
2019-06-26T00:51:04.874Z,21.67
2019-06-26T00:52:08.521Z,21.64
2019-06-26T00:53:12.752Z,21.67
2019-06-26T00:54:16.301Z,21.67
2019-06-26T00:55:20.537Z,21.63
2019-06-26T00:56:24.149Z,21.66
2019-06-26T00:57:28.656Z,21.67
2019-06-26T00:58:32.229Z,21.67
2019-06-26T00:59:36.757Z,21.68
2019-06-26T01:00:45.785Z,21.70
2019-06-26T01:01:50.044Z,21.70
2019-06-26T01:02:53.589Z,21.73
2019-06-26T01:03:58.805Z,21.70
2019-06-26T01:05:04.018Z,21.72
2019-06-26T01:06:09.208Z,21.70
2019-06-26T01:07:12.745Z,21.69
2019-06-26T01:08:16.972Z,21.66
2019-06-26T01:09:20.614Z,21.67
2019-06-26T01:10:24.844Z,21.64
2019-06-26T01:11:28.453Z,21.57
2019-06-26T01:12:32.723Z,21.57
2019-06-26T01:13:36.306Z,21.57
2019-06-26T01:14:40.555Z,21.48
2019-06-26T01:15:44.566Z,21.47
2019-06-26T01:16:48.704Z,21.49
2019-06-26T01:17:52.415Z,21.57
2019-06-26T01:18:56.638Z,21.55
2019-06-26T01:20:00.280Z,21.53
2019-06-26T01:21:04.433Z,21.49
2019-06-26T01:22:07.986Z,21.41
2019-06-26T01:23:12.090Z,21.34
2019-06-26T01:24:15.591Z,21.34
2019-06-26T01:25:19.817Z,21.37
2019-06-26T01:26:23.456Z,21.39
2019-06-26T01:27:27.934Z,21.39
2019-06-26T01:28:31.548Z,21.39
2019-06-26T01:29:35.754Z,21.41
2019-06-26T01:30:39.464Z,21.34
2019-06-26T01:31:43.762Z,21.31
2019-06-26T01:32:47.381Z,21.31
2019-06-26T01:33:51.568Z,21.29
2019-06-26T01:34:55.141Z,21.27
2019-06-26T01:35:59.275Z,21.30
2019-06-26T01:37:02.786Z,21.30
2019-06-26T01:38:07.010Z,21.30
2019-06-26T01:39:11.034Z,21.29
2019-06-26T01:40:15.355Z,21.29
2019-06-26T01:41:18.972Z,21.32
2019-06-26T01:42:23.184Z,21.31
2019-06-26T01:43:26.771Z,21.24
2019-06-26T01:44:31.032Z,21.18
2019-06-26T01:45:34.587Z,21.08
2019-06-26T01:46:38.679Z,21.04
2019-06-26T01:47:42.615Z,21.08
2019-06-26T01:48:46.826Z,20.91
2019-06-26T01:49:50.747Z,20.82
2019-06-26T01:50:54.885Z,20.83
2019-06-26T01:51:58.513Z,20.90
2019-06-26T01:53:02.656Z,20.94
2019-06-26T01:54:06.305Z,20.99
2019-06-26T01:55:10.963Z,21.01
2019-06-26T01:56:14.594Z,21.03
2019-06-26T01:57:18.818Z,21.07
2019-06-26T01:58:22.371Z,21.08
2019-06-26T01:59:26.517Z,21.06
2019-06-26T02:00:32.412Z,21.07
2019-06-26T02:01:36.643Z,21.08
2019-06-26T02:02:40.291Z,21.08
2019-06-26T02:03:44.436Z,20.91
2019-06-26T02:04:48.060Z,20.74
2019-06-26T02:05:52.310Z,20.63
2019-06-26T02:06:55.883Z,20.68
2019-06-26T02:08:00.169Z,20.76
2019-06-26T02:09:04.876Z,20.83
2019-06-26T02:10:10.660Z,20.89
2019-06-26T02:11:14.272Z,20.94
2019-06-26T02:12:18.454Z,20.97
2019-06-26T02:13:22.058Z,20.99
2019-06-26T02:14:30.872Z,21.00
2019-06-26T02:15:31.599Z,20.97
2019-06-26T02:16:35.824Z,20.93
2019-06-26T02:17:39.382Z,20.89
2019-06-26T02:18:47.875Z,20.90
2019-06-26T02:19:51.460Z,20.92
2019-06-26T02:20:55.759Z,20.91
2019-06-26T02:21:59.471Z,20.89
2019-06-26T02:23:03.799Z,20.87
2019-06-26T02:24:07.370Z,20.80
2019-06-26T02:25:11.779Z,20.80
2019-06-26T02:26:15.959Z,20.73
2019-06-26T02:27:20.201Z,20.76
2019-06-26T02:28:23.828Z,20.79
2019-06-26T02:29:28.061Z,20.82
2019-06-26T02:30:31.624Z,20.84
2019-06-26T02:31:35.797Z,20.82
2019-06-26T02:32:39.453Z,20.80
2019-06-26T02:33:43.607Z,20.81
2019-06-26T02:34:47.230Z,20.72
2019-06-26T02:35:51.448Z,20.72
2019-06-26T02:36:55.117Z,20.70
2019-06-26T02:37:59.336Z,20.67
2019-06-26T02:39:02.931Z,20.64
2019-06-26T02:40:08.147Z,20.41
2019-06-26T02:41:11.779Z,20.35
2019-06-26T02:42:15.965Z,20.42
2019-06-26T02:43:19.578Z,20.45
2019-06-26T02:44:23.812Z,20.44
2019-06-26T02:45:27.372Z,20.42
2019-06-26T02:46:31.510Z,20.40
2019-06-26T02:47:35.397Z,20.34
2019-06-26T02:48:39.968Z,20.17
2019-06-26T02:49:43.614Z,20.11
2019-06-26T02:50:47.837Z,20.11
2019-06-26T02:51:51.455Z,20.12
2019-06-26T02:52:55.594Z,20.10
2019-06-26T02:53:59.134Z,20.13
2019-06-26T02:55:03.286Z,20.20
2019-06-26T02:56:06.917Z,20.21
2019-06-26T02:57:11.018Z,20.13
2019-06-26T02:58:14.675Z,20.09
2019-06-26T02:59:18.939Z,20.15
2019-06-26T03:00:22.573Z,20.24
2019-06-26T03:01:26.779Z,20.23
2019-06-26T03:02:30.407Z,20.26
2019-06-26T03:03:34.571Z,20.26
2019-06-26T03:04:38.227Z,20.23
2019-06-26T03:05:42.320Z,20.21
2019-06-26T03:06:48.863Z,20.23
2019-06-26T03:07:52.940Z,20.28
2019-06-26T03:08:56.483Z,20.26
2019-06-26T03:10:00.722Z,20.26
2019-06-26T03:11:04.351Z,20.19
2019-06-26T03:12:08.596Z,20.16
2019-06-26T03:13:12.218Z,20.05
2019-06-26T03:14:16.358Z,20.12
2019-06-26T03:15:20.050Z,20.13
2019-06-26T03:16:24.267Z,20.12
2019-06-26T03:17:27.764Z,20.06
2019-06-26T03:18:31.996Z,20.10
2019-06-26T03:19:35.671Z,20.14
2019-06-26T03:20:42.807Z,20.18
2019-06-26T03:21:46.284Z,20.15
2019-06-26T03:22:50.360Z,20.14
2019-06-26T03:23:53.996Z,20.23
2019-06-26T03:24:58.240Z,20.19
2019-06-26T03:26:02.287Z,20.19
2019-06-26T03:27:09.013Z,20.24
2019-06-26T03:28:11.757Z,20.28
2019-06-26T03:29:15.897Z,20.31
2019-06-26T03:30:19.752Z,20.28
2019-06-26T03:31:24.008Z,20.31
2019-06-26T03:32:27.557Z,20.30
2019-06-26T03:33:31.707Z,20.35
2019-06-26T03:34:35.348Z,20.36
2019-06-26T03:35:40.867Z,20.40
2019-06-26T03:36:45.024Z,20.43
2019-06-26T03:37:49.260Z,20.39
2019-06-26T03:38:52.821Z,20.37
2019-06-26T03:39:57.004Z,20.33
2019-06-26T03:41:00.698Z,20.28
2019-06-26T03:42:04.939Z,20.32
2019-06-26T03:43:08.530Z,20.31
2019-06-26T03:44:12.745Z,20.34
2019-06-26T03:45:25.586Z,20.37
2019-06-26T03:46:22.909Z,20.40
2019-06-26T03:47:26.464Z,20.44
2019-06-26T03:48:30.615Z,20.47
2019-06-26T03:49:34.182Z,20.49
2019-06-26T03:50:38.441Z,20.50
2019-06-26T03:51:42.044Z,20.52
2019-06-26T03:52:46.287Z,20.55
2019-06-26T03:53:49.863Z,20.61
2019-06-26T03:54:54.443Z,20.64
2019-06-26T03:55:57.959Z,20.63
2019-06-26T03:57:02.191Z,20.57
2019-06-26T03:58:05.853Z,20.55
2019-06-26T03:59:10.000Z,20.59
2019-06-26T04:00:14.230Z,20.65
2019-06-26T04:01:18.449Z,20.71
2019-06-26T04:02:21.952Z,20.74
2019-06-26T04:03:26.239Z,20.69
2019-06-26T04:04:29.717Z,20.69
2019-06-26T04:05:34.536Z,20.72
2019-06-26T04:06:38.048Z,20.76
2019-06-26T04:07:42.189Z,20.79
2019-06-26T04:08:45.901Z,20.80
2019-06-26T04:09:50.131Z,20.82
2019-06-26T04:10:53.766Z,20.85
2019-06-26T04:11:57.847Z,20.90
2019-06-26T04:13:01.617Z,20.91
2019-06-26T04:14:05.863Z,20.95
2019-06-26T04:15:09.944Z,20.93
2019-06-26T04:16:14.164Z,20.95
2019-06-26T04:17:17.814Z,20.98
2019-06-26T04:18:21.964Z,21.04
2019-06-26T04:19:25.567Z,21.08
2019-06-26T04:20:29.786Z,21.10
2019-06-26T04:21:33.417Z,21.10
2019-06-26T04:22:37.636Z,21.14
2019-06-26T04:23:41.213Z,21.15
2019-06-26T04:24:45.430Z,21.11
2019-06-26T04:25:48.994Z,21.07
2019-06-26T04:26:53.227Z,20.96
2019-06-26T04:27:56.870Z,21.00
2019-06-26T04:29:01.407Z,20.94
2019-06-26T04:30:07.141Z,20.99
2019-06-26T04:31:11.354Z,21.01
2019-06-26T04:32:14.931Z,21.05
2019-06-26T04:33:19.169Z,20.97
2019-06-26T04:34:22.716Z,20.98
2019-06-26T04:35:26.885Z,21.02
2019-06-26T04:36:30.535Z,21.07
2019-06-26T04:37:34.691Z,21.12
2019-06-26T04:38:38.265Z,21.13
2019-06-26T04:39:42.513Z,21.10
2019-06-26T04:40:46.052Z,21.03
2019-06-26T04:41:50.209Z,21.05
2019-06-26T04:42:53.828Z,21.11
2019-06-26T04:43:57.994Z,21.15
2019-06-26T04:45:01.708Z,21.23
2019-06-26T04:46:05.989Z,21.23
2019-06-26T04:47:09.650Z,21.24
2019-06-26T04:48:13.926Z,21.26
2019-06-26T04:49:17.563Z,21.29
2019-06-26T04:50:21.914Z,21.31
2019-06-26T04:51:25.542Z,21.33
2019-06-26T04:52:29.754Z,21.35
2019-06-26T04:53:33.401Z,21.33
2019-06-26T04:54:37.589Z,21.31
2019-06-26T04:55:41.194Z,21.28
2019-06-26T04:56:45.317Z,21.31
2019-06-26T04:57:48.802Z,21.33
2019-06-26T04:58:53.068Z,21.30
2019-06-26T04:59:56.713Z,21.37
2019-06-26T05:01:00.783Z,21.38
2019-06-26T05:02:04.467Z,21.40
2019-06-26T05:03:08.667Z,21.44
2019-06-26T05:04:12.615Z,21.49
2019-06-26T05:05:17.147Z,21.51
2019-06-26T05:06:20.782Z,21.54
2019-06-26T05:07:25.110Z,21.49
2019-06-26T05:08:28.601Z,21.43
2019-06-26T05:09:32.824Z,21.45
2019-06-26T05:10:36.469Z,21.46
2019-06-26T05:11:40.672Z,21.52
2019-06-26T05:12:44.341Z,21.57
2019-06-26T05:13:48.496Z,21.63
2019-06-26T05:14:52.076Z,21.68
2019-06-26T05:15:56.205Z,21.73
2019-06-26T05:16:59.844Z,21.75
2019-06-26T05:18:04.013Z,21.79
2019-06-26T05:19:07.580Z,21.83
2019-06-26T05:20:12.202Z,21.86
2019-06-26T05:21:15.761Z,21.91
2019-06-26T05:22:19.981Z,21.92
2019-06-26T05:23:23.588Z,21.97
2019-06-26T05:24:27.726Z,21.93
2019-06-26T05:25:31.279Z,21.98
2019-06-26T05:26:35.524Z,21.98
2019-06-26T05:27:39.082Z,21.93
2019-06-26T05:28:43.799Z,21.97
2019-06-26T05:29:47.382Z,22.06
2019-06-26T05:30:51.576Z,22.08
2019-06-26T05:31:55.205Z,22.08
2019-06-26T05:32:59.438Z,22.17
2019-06-26T05:34:03.105Z,22.25
2019-06-26T05:35:09.631Z,22.25
2019-06-26T05:36:13.348Z,22.32
2019-06-26T05:37:17.485Z,22.33
2019-06-26T05:38:21.137Z,22.27
2019-06-26T05:39:25.382Z,22.35
2019-06-26T05:40:28.945Z,22.40
2019-06-26T05:41:33.595Z,22.46
2019-06-26T05:42:37.265Z,22.50
2019-06-26T05:43:41.448Z,22.59
2019-06-26T05:44:45.095Z,22.60
2019-06-26T05:45:49.327Z,22.67
2019-06-26T05:46:52.928Z,22.72
2019-06-26T05:47:57.087Z,22.81
2019-06-26T05:49:00.726Z,22.90
2019-06-26T05:50:06.936Z,22.91
2019-06-26T05:51:10.562Z,22.93
2019-06-26T05:52:16.699Z,22.94
2019-06-26T05:53:20.127Z,23.00
2019-06-26T05:54:24.189Z,23.03
2019-06-26T05:55:28.138Z,23.15
2019-06-26T06:09:19.862Z,23.79
2019-06-26T06:10:24.104Z,23.77
2019-06-26T06:11:27.689Z,23.81
2019-06-26T06:12:31.893Z,23.89
2019-06-26T06:13:35.478Z,23.84
2019-06-26T06:14:39.723Z,23.84
2019-06-26T06:15:43.218Z,23.90
2019-06-26T06:16:48.079Z,23.92
2019-06-26T06:17:51.922Z,23.94
2019-06-26T06:18:56.086Z,23.91
2019-06-26T06:19:59.783Z,23.95
2019-06-26T06:21:04.097Z,24.02
2019-06-26T06:22:07.729Z,24.04
2019-06-26T06:23:11.921Z,24.06
2019-06-26T06:24:15.478Z,24.00
2019-06-26T06:25:19.654Z,23.95
2019-06-26T06:26:23.544Z,24.00
2019-06-26T06:27:27.684Z,24.04
2019-06-26T06:28:31.360Z,24.10
2019-06-26T06:29:35.509Z,24.11
2019-06-26T06:30:39.026Z,24.13
2019-06-26T06:31:43.237Z,24.17
2019-06-26T06:32:46.823Z,24.25
2019-06-26T06:33:50.954Z,24.27
2019-06-26T06:34:54.583Z,24.30
2019-06-26T06:35:58.834Z,24.33
2019-06-26T06:37:02.407Z,24.27
2019-06-26T06:38:06.550Z,24.22
2019-06-26T06:39:10.253Z,24.18
2019-06-26T06:40:15.385Z,24.17
2019-06-26T06:41:19.007Z,24.19
2019-06-26T06:42:23.151Z,24.16
2019-06-26T06:43:26.798Z,24.17
2019-06-26T06:44:30.940Z,24.17
2019-06-26T06:45:34.608Z,24.17
2019-06-26T06:46:38.691Z,24.13
2019-06-26T06:47:42.351Z,24.14
2019-06-26T06:48:46.471Z,24.21
2019-06-26T06:49:50.150Z,24.20
2019-06-26T06:50:54.321Z,24.20
2019-06-26T06:51:57.877Z,24.26
2019-06-26T06:53:02.139Z,24.29
2019-06-26T06:54:05.780Z,24.32
2019-06-26T06:55:10.445Z,24.37
2019-06-26T06:56:15.630Z,24.41
2019-06-26T06:57:20.250Z,24.44
2019-06-26T06:58:23.904Z,24.50
2019-06-26T06:59:28.194Z,24.54
2019-06-26T07:00:31.860Z,24.55
2019-06-26T07:01:36.081Z,24.55
2019-06-26T07:02:39.719Z,24.51
2019-06-26T07:03:43.935Z,24.55
2019-06-26T07:16:39.115Z,25.27
2019-06-26T07:17:43.338Z,25.34
2019-06-26T07:18:46.922Z,25.31
2019-06-26T07:19:51.166Z,25.33
2019-06-26T07:20:54.805Z,25.35
2019-06-26T07:21:58.967Z,25.38
2019-06-26T07:23:02.640Z,25.41
2019-06-26T07:24:06.857Z,25.44
2019-06-26T07:25:10.690Z,25.47
2019-06-26T07:26:14.953Z,25.41
2019-06-26T07:27:18.518Z,25.37
2019-06-26T07:28:22.990Z,25.36
2019-06-26T07:29:26.736Z,25.21
2019-06-26T07:30:33.464Z,25.25
2019-06-26T07:31:38.569Z,25.24
2019-06-26T07:32:46.289Z,25.26
2019-06-26T07:33:49.855Z,25.33
2019-06-26T07:34:54.129Z,25.28
2019-06-26T07:35:57.813Z,25.32
2019-06-26T07:37:02.171Z,25.37
2019-06-26T07:38:05.853Z,25.40
2019-06-26T07:39:11.579Z,25.45
2019-06-26T07:40:15.431Z,25.49
2019-06-26T07:41:22.614Z,25.54
2019-06-26T07:42:26.665Z,25.60
2019-06-26T07:43:32.615Z,25.65
2019-06-26T07:44:36.206Z,25.65
2019-06-26T07:45:40.802Z,25.68
2019-06-26T07:46:44.509Z,25.69
2019-06-26T07:47:50.352Z,25.64
2019-06-26T07:48:57.374Z,25.60
2019-06-26T07:50:01.374Z,25.65
2019-06-26T07:51:05.037Z,25.77
2019-06-26T07:52:09.644Z,25.89
2019-06-26T07:53:13.294Z,25.94
2019-06-26T07:54:17.540Z,25.76
2019-06-26T07:55:21.167Z,25.63
2019-06-26T07:56:25.415Z,25.65
2019-06-26T07:57:28.998Z,25.76
2019-06-26T07:58:33.282Z,25.82
2019-06-26T07:59:36.916Z,25.90
2019-06-26T08:00:42.718Z,26.01
2019-06-26T08:01:46.371Z,26.09
2019-06-26T08:02:50.518Z,26.13
2019-06-26T08:03:54.204Z,26.14
2019-06-26T08:04:58.410Z,26.17
2019-06-26T08:06:04.842Z,26.20
2019-06-26T08:07:12.827Z,26.42
2019-06-26T08:08:15.732Z,26.52
2019-06-26T08:09:19.899Z,26.69
2019-06-26T08:10:23.533Z,26.94
2019-06-26T08:11:27.768Z,27.28
2019-06-26T08:12:31.337Z,27.50
2019-06-26T08:13:35.488Z,27.70
2019-06-26T08:14:39.106Z,27.80
2019-06-26T08:15:43.287Z,27.91
2019-06-26T08:16:46.899Z,27.93
2019-06-26T08:18:00.302Z,28.00
2019-06-26T08:19:02.522Z,28.11
2019-06-26T08:20:07.537Z,28.21
2019-06-26T08:21:18.418Z,28.32
2019-06-26T08:22:33.419Z,28.45
2019-06-26T08:23:42.665Z,28.59
2019-06-26T08:24:50.149Z,28.80
2019-06-26T08:25:53.800Z,28.96
2019-06-26T08:27:04.620Z,28.98
2019-06-26T08:28:08.347Z,28.89
2019-06-26T08:29:12.561Z,28.78
2019-06-26T08:30:16.325Z,28.79
2019-06-26T08:31:20.496Z,28.83
2019-06-26T08:32:26.063Z,28.64
2019-06-26T08:33:30.087Z,28.46
2019-06-26T08:34:33.601Z,28.47
2019-06-26T08:35:37.812Z,28.55
2019-06-26T08:36:41.306Z,28.65
2019-06-26T08:37:45.711Z,28.52
2019-06-26T08:38:49.298Z,28.38
2019-06-26T08:39:53.852Z,28.42
2019-06-26T08:40:57.612Z,28.47
2019-06-26T08:42:01.841Z,28.40
2019-06-26T08:43:05.439Z,28.43
2019-06-26T08:44:09.966Z,28.36
2019-06-26T08:45:13.715Z,28.37
2019-06-26T08:46:17.864Z,28.34
2019-06-26T08:47:21.440Z,28.52
2019-06-26T08:48:38.918Z,28.61
2019-06-26T08:49:30.997Z,28.66
2019-06-26T08:50:35.238Z,28.56
2019-06-26T08:51:38.865Z,28.59
2019-06-26T08:52:43.011Z,28.73
2019-06-26T08:53:46.626Z,28.77
2019-06-26T08:54:50.822Z,28.87
2019-06-26T08:55:54.456Z,29.06
2019-06-26T08:56:58.711Z,29.27
2019-06-26T08:58:02.201Z,29.42
2019-06-26T08:59:06.471Z,29.59
2019-06-26T09:00:11.621Z,29.60
2019-06-26T09:01:15.844Z,29.60
2019-06-26T09:02:24.218Z,29.59
2019-06-26T09:03:28.308Z,29.49
2019-06-26T09:04:31.927Z,29.36
2019-06-26T09:05:47.358Z,29.36
2019-06-26T09:06:41.522Z,29.07
2019-06-26T09:07:45.735Z,29.09
2019-06-26T09:08:49.394Z,29.39
2019-06-26T09:10:07.773Z,29.49
2019-06-26T09:11:11.329Z,29.47
2019-06-26T09:12:15.565Z,29.58
2019-06-26T09:13:19.064Z,29.83
2019-06-26T09:14:23.414Z,29.98
2019-06-26T09:15:27.060Z,29.92
2019-06-26T09:16:31.211Z,30.07
2019-06-26T09:17:35.134Z,30.25
2019-06-26T09:18:39.354Z,30.49
2019-06-26T09:19:42.914Z,30.77
2019-06-26T09:20:47.123Z,30.93
2019-06-26T09:21:50.691Z,31.10
2019-06-26T09:22:54.766Z,31.06
2019-06-26T09:23:58.342Z,31.07
2019-06-26T09:25:16.803Z,31.19
2019-06-26T09:26:07.884Z,31.17
2019-06-26T09:27:14.873Z,31.18
2019-06-26T09:28:17.397Z,31.24
2019-06-26T09:29:23.974Z,31.48
2019-06-26T09:30:27.347Z,31.49
2019-06-26T09:31:31.592Z,31.51
2019-06-26T09:32:35.633Z,31.59
2019-06-26T09:33:40.128Z,31.75
2019-06-26T09:34:43.690Z,31.86
2019-06-26T09:35:47.864Z,31.97
2019-06-26T09:36:51.398Z,32.15
2019-06-26T09:37:55.656Z,32.22
2019-06-26T09:38:59.275Z,32.37
2019-06-26T09:40:03.500Z,32.43
2019-06-26T09:41:07.083Z,32.54
2019-06-26T09:42:11.332Z,32.56
2019-06-26T09:43:14.886Z,32.53
2019-06-26T09:44:19.141Z,32.57
2019-06-26T09:45:22.775Z,32.49
2019-06-26T09:46:26.899Z,32.28
2019-06-26T09:47:31.201Z,32.08
2019-06-26T09:48:51.393Z,32.03
2019-06-26T09:49:40.913Z,32.09
2019-06-26T09:50:45.125Z,32.11
2019-06-26T09:51:48.774Z,32.14
2019-06-26T09:52:53.335Z,32.12
2019-06-26T09:53:56.898Z,32.11
2019-06-26T09:55:01.027Z,32.13
2019-06-26T09:56:05.024Z,32.06
2019-06-26T09:57:09.109Z,31.96
2019-06-26T09:58:13.597Z,31.78
2019-06-26T09:59:17.991Z,31.65
2019-06-26T10:00:22.727Z,31.52
2019-06-26T10:01:26.939Z,31.29
2019-06-26T10:02:30.585Z,31.06
2019-06-26T10:03:34.872Z,30.79
2019-06-26T10:04:38.371Z,30.72
2019-06-26T10:05:43.043Z,30.73
2019-06-26T10:06:46.680Z,30.76
2019-06-26T10:07:50.832Z,30.75
2019-06-26T10:08:54.779Z,30.67
2019-06-26T10:09:59.142Z,30.58
2019-06-26T10:11:03.093Z,30.55
2019-06-26T10:12:07.387Z,30.58
2019-06-26T10:13:11.041Z,30.62
2019-06-26T10:14:15.275Z,30.56
2019-06-26T10:15:19.101Z,30.63
2019-06-26T10:16:23.255Z,30.68
2019-06-26T10:17:26.912Z,30.73
2019-06-26T10:18:31.387Z,30.78
2019-06-26T10:19:35.072Z,30.89
2019-06-26T10:20:39.274Z,30.89
2019-06-26T10:21:42.874Z,30.86
2019-06-26T10:22:46.984Z,30.85
2019-06-26T10:23:50.678Z,30.80
2019-06-26T10:24:54.920Z,30.76
2019-06-26T10:25:58.535Z,30.71
2019-06-26T10:27:03.293Z,30.76
2019-06-26T10:28:07.335Z,30.82
2019-06-26T10:29:11.558Z,30.83
2019-06-26T10:30:16.894Z,30.82
2019-06-26T10:31:21.019Z,30.76
2019-06-26T10:32:24.574Z,30.68
2019-06-26T10:33:28.808Z,30.74
2019-06-26T10:34:32.453Z,30.97
2019-06-26T10:35:36.733Z,31.19
2019-06-26T10:36:40.663Z,31.22
2019-06-26T10:37:44.888Z,31.27
2019-06-26T10:38:48.535Z,31.32
2019-06-26T10:39:52.758Z,31.43
2019-06-26T10:40:56.346Z,31.44
2019-06-26T10:42:00.827Z,31.44
2019-06-26T10:43:04.470Z,31.32
2019-06-26T10:44:08.696Z,31.28
2019-06-26T10:45:12.441Z,31.42
2019-06-26T10:46:16.706Z,31.44
2019-06-26T10:47:20.253Z,31.34
2019-06-26T10:48:24.413Z,31.21
2019-06-26T10:49:28.170Z,31.22
2019-06-26T10:50:32.310Z,31.24
2019-06-26T10:51:35.949Z,31.38
2019-06-26T10:52:40.211Z,31.58
2019-06-26T10:53:46.076Z,31.80
2019-06-26T10:54:49.716Z,32.04
2019-06-26T10:55:53.327Z,32.21
2019-06-26T10:56:57.874Z,32.32
2019-06-26T10:58:01.447Z,32.24
2019-06-26T10:59:06.169Z,32.16
2019-06-26T11:00:11.222Z,32.01
2019-06-26T11:01:15.373Z,31.98
2019-06-26T11:02:19.082Z,32.11
2019-06-26T11:03:23.244Z,32.03
2019-06-26T11:04:26.789Z,31.83
2019-06-26T11:05:31.007Z,31.91
2019-06-26T11:06:37.272Z,31.90
2019-06-26T11:07:40.944Z,31.82
2019-06-26T11:08:44.427Z,31.66
2019-06-26T11:09:48.379Z,31.47
2019-06-26T11:10:52.003Z,31.29
2019-06-26T11:11:56.351Z,31.28
2019-06-26T11:13:00.476Z,31.33
2019-06-26T11:14:04.999Z,31.28
2019-06-26T11:15:09.507Z,31.20
2019-06-26T11:16:13.748Z,31.14
2019-06-26T11:17:17.217Z,31.07
2019-06-26T11:18:21.482Z,31.00
2019-06-26T11:19:24.992Z,30.87
2019-06-26T11:20:29.196Z,30.82
2019-06-26T11:21:32.851Z,30.82
2019-06-26T11:22:37.162Z,30.84
2019-06-26T11:23:40.832Z,30.88
2019-06-26T11:24:45.011Z,31.01
2019-06-26T11:25:48.642Z,31.20
2019-06-26T11:26:52.722Z,31.34
2019-06-26T11:27:56.274Z,31.57
2019-06-26T11:29:00.517Z,31.84
2019-06-26T11:30:07.072Z,32.08
2019-06-26T11:31:11.629Z,32.24
2019-06-26T11:32:15.195Z,32.20
2019-06-26T11:33:19.444Z,32.22
2019-06-26T11:34:22.981Z,32.23
2019-06-26T11:35:27.039Z,31.98
2019-06-26T11:36:30.680Z,31.77
2019-06-26T11:37:34.809Z,31.56
2019-06-26T11:38:38.436Z,31.45
2019-06-26T11:39:42.604Z,31.35
2019-06-26T11:40:46.594Z,31.27
2019-06-26T11:41:50.746Z,31.12
2019-06-26T11:42:54.316Z,31.02
2019-06-26T11:43:58.471Z,30.96
2019-06-26T11:45:03.582Z,30.85
2019-06-26T11:46:07.788Z,30.80
2019-06-26T11:47:11.424Z,30.74
2019-06-26T11:48:15.639Z,30.67
2019-06-26T11:49:19.207Z,30.67
2019-06-26T11:50:24.480Z,30.44
2019-06-26T11:51:28.106Z,30.25
2019-06-26T11:52:32.365Z,30.16
2019-06-26T11:53:35.907Z,29.96
2019-06-26T11:54:40.143Z,29.81
2019-06-26T11:55:44.127Z,29.64
2019-06-26T11:56:48.279Z,29.56
2019-06-26T11:57:51.931Z,29.51
2019-06-26T11:58:56.069Z,29.53
2019-06-26T11:59:59.908Z,29.59
2019-06-26T12:01:04.172Z,29.46
2019-06-26T12:02:07.969Z,29.44
2019-06-26T12:03:13.417Z,29.46
2019-06-26T12:04:17.128Z,29.50
2019-06-26T12:05:21.538Z,29.55
2019-06-26T12:06:25.230Z,29.56
2019-06-26T12:07:29.392Z,29.60
2019-06-26T12:08:33.014Z,29.85
2019-06-26T12:09:37.210Z,30.03
2019-06-26T12:10:40.815Z,30.28
2019-06-26T12:11:45.062Z,30.54
2019-06-26T12:12:49.064Z,30.75
2019-06-26T12:13:53.279Z,30.82
2019-06-26T12:14:56.938Z,30.97
2019-06-26T12:16:01.496Z,31.16
2019-06-26T12:17:05.281Z,31.48
2019-06-26T12:18:09.420Z,31.68
2019-06-26T12:19:12.966Z,31.88
2019-06-26T12:20:19.825Z,31.90
2019-06-26T12:21:23.266Z,31.91
2019-06-26T12:22:27.582Z,31.95
2019-06-26T12:23:31.203Z,31.87
2019-06-26T12:24:35.421Z,31.97
2019-06-26T12:25:39.672Z,32.10
2019-06-26T12:26:43.748Z,32.12
2019-06-26T12:27:47.426Z,32.05
2019-06-26T12:28:51.579Z,32.20
2019-06-26T12:29:56.850Z,32.32
2019-06-26T12:31:01.381Z,32.32
2019-06-26T12:32:05.068Z,32.43
2019-06-26T12:33:09.345Z,32.34
2019-06-26T12:34:12.865Z,32.37
2019-06-26T12:35:17.087Z,32.49
2019-06-26T12:36:20.731Z,32.49
2019-06-26T12:37:36.903Z,32.52
2019-06-26T12:38:30.352Z,32.59
2019-06-26T12:39:34.561Z,32.79
2019-06-26T12:40:38.132Z,32.86
2019-06-26T12:41:42.199Z,32.78
2019-06-26T12:42:45.780Z,32.69
2019-06-26T12:43:49.866Z,32.62
2019-06-26T12:44:53.895Z,32.34
2019-06-26T12:45:58.505Z,32.33
2019-06-26T12:47:02.074Z,32.49
2019-06-26T12:48:06.271Z,32.47
2019-06-26T12:49:09.956Z,32.43
2019-06-26T12:50:14.855Z,32.41
2019-06-26T12:51:18.406Z,32.41
2019-06-26T12:52:22.558Z,32.47
2019-06-26T12:53:26.207Z,32.58
2019-06-26T12:54:30.356Z,32.30
2019-06-26T12:55:33.994Z,31.98
2019-06-26T12:56:38.291Z,31.59
2019-06-26T12:57:42.416Z,31.34
2019-06-26T12:58:46.732Z,31.31
2019-06-26T12:59:57.443Z,31.12
2019-06-26T13:00:56.209Z,30.91
2019-06-26T13:01:59.848Z,30.89
2019-06-26T13:03:04.176Z,30.85
2019-06-26T13:04:07.847Z,30.92
2019-06-26T13:05:12.329Z,30.84
2019-06-26T13:06:16.485Z,30.95
2019-06-26T13:07:20.672Z,31.05
2019-06-26T13:08:24.291Z,31.08
2019-06-26T13:09:30.096Z,31.08
2019-06-26T13:10:48.447Z,31.04
2019-06-26T13:11:39.672Z,30.97
2019-06-26T13:12:45.769Z,30.91
2019-06-26T13:14:02.059Z,30.92
2019-06-26T13:14:54.413Z,30.78
2019-06-26T13:15:58.581Z,30.77
2019-06-26T13:17:02.256Z,30.75
2019-06-26T13:18:06.432Z,30.82
2019-06-26T13:19:10.080Z,31.01
2019-06-26T13:20:14.355Z,30.98
2019-06-26T13:21:18.036Z,30.98
2019-06-26T13:22:22.134Z,30.83
2019-06-26T13:23:25.777Z,30.76
2019-06-26T13:24:29.969Z,30.66
2019-06-26T13:25:33.529Z,30.62
2019-06-26T13:26:37.802Z,30.75
2019-06-26T13:27:41.483Z,30.83
2019-06-26T13:28:45.543Z,30.84
2019-06-26T13:29:49.092Z,30.78
2019-06-26T13:30:53.684Z,30.76
2019-06-26T13:31:57.387Z,30.66
2019-06-26T13:33:01.618Z,30.65
2019-06-26T13:34:05.214Z,30.69
2019-06-26T13:35:09.415Z,30.77
2019-06-26T13:36:13.432Z,30.71
2019-06-26T13:37:17.626Z,30.47
2019-06-26T13:38:21.186Z,30.37
2019-06-26T13:39:25.405Z,29.96
2019-06-26T13:40:29.389Z,29.81
2019-06-26T13:41:33.611Z,29.60
2019-06-26T13:42:37.284Z,29.51
2019-06-26T13:43:41.510Z,29.20
2019-06-26T13:44:45.165Z,29.20
2019-06-26T13:45:49.392Z,29.22
2019-06-26T13:46:52.931Z,29.23
2019-06-26T13:47:57.050Z,29.22
2019-06-26T13:49:00.726Z,29.22
2019-06-26T13:50:09.475Z,29.13
2019-06-26T13:51:13.101Z,29.05
2019-06-26T13:52:17.317Z,28.99
2019-06-26T13:53:20.983Z,28.87
2019-06-26T13:54:25.203Z,28.94
2019-06-26T13:55:28.792Z,29.03
2019-06-26T13:56:32.998Z,29.14
2019-06-26T13:57:36.632Z,29.20
2019-06-26T13:58:40.870Z,29.23
2019-06-26T13:59:44.538Z,29.19
2019-06-26T14:00:48.742Z,29.25
2019-06-26T14:01:52.424Z,29.47
2019-06-26T14:02:56.669Z,29.75
2019-06-26T14:04:00.297Z,29.98
2019-06-26T14:05:07.569Z,30.14
2019-06-26T14:06:11.538Z,30.19
2019-06-26T14:07:15.664Z,30.52
2019-06-26T14:08:19.308Z,30.70
2019-06-26T14:09:23.546Z,30.88
2019-06-26T14:10:27.381Z,31.13
2019-06-26T14:11:31.605Z,31.30